sensor_id;sensor_type;location;lat;lon;timestamp;pressure;altitude;pressure_sealevel;temperature;humidity
17950;BME280;9100;48.700;9.316;2022-08-01T00:00:40;97798.6;;;23.75;63.846
17950;BME280;9100;48.700;9.316;2022-08-01T00:01:40;97800.40000000001;;;23.74;63.266
17950;BME280;9100;48.700;9.316;2022-08-01T00:02:40;97793.1;;;23.71;63.414
17950;BME280;9100;48.700;9.316;2022-08-01T00:03:40;97796.8;;;23.7;63.896
17950;BME280;9100;48.700;9.316;2022-08-01T00:04:13;97796.2;;;23.68;63.716
17950;BME280;9100;48.700;9.316;2022-08-01T00:04:40;97787.59999999999;;;23.67;63.76
17950;BME280;9100;48.700;9.316;2022-08-01T00:05:40;97793.9;;;23.66;64.087
17950;BME280;9100;48.700;9.316;2022-08-01T00:06:40;97791.3;;;23.66;63.714
17950;BME280;9100;48.700;9.316;2022-08-01T00:07:40;97792.6;;;23.64;63.842
17950;BME280;9100;48.700;9.316;2022-08-01T00:08:40;97796.2;;;23.63;63.842
17950;BME280;9100;48.700;9.316;2022-08-01T00:09:12;97793.9;;;23.61;63.806
17950;BME280;9100;48.700;9.316;2022-08-01T00:09:40;97793.9;;;23.61;63.828
17950;BME280;9100;48.700;9.316;2022-08-01T00:10:40;97792.3;;;23.6;64.023
17950;BME280;9100;48.700;9.316;2022-08-01T00:11:40;97797;;;23.58;63.506
17950;BME280;9100;48.700;9.316;2022-08-01T00:12:41;97792;;;23.57;64.073
17950;BME280;9100;48.700;9.316;2022-08-01T00:13:40;97797.79999999999;;;23.54;64.562
17950;BME280;9100;48.700;9.316;2022-08-01T00:14:12;97797.79999999999;;;23.54;64.2
17950;BME280;9100;48.700;9.316;2022-08-01T00:14:41;97792.5;;;23.54;64.102
17950;BME280;9100;48.700;9.316;2022-08-01T00:15:40;97799.90000000001;;;23.52;63.803
17950;BME280;9100;48.700;9.316;2022-08-01T00:16:41;97797;;;23.48;63.854
17950;BME280;9100;48.700;9.316;2022-08-01T00:17:41;97794.6;;;23.47;64.333
17950;BME280;9100;48.700;9.316;2022-08-01T00:18:40;97799.3;;;23.45;65.184
17950;BME280;9100;48.700;9.316;2022-08-01T00:19:12;97800.40000000001;;;23.44;65.105
17950;BME280;9100;48.700;9.316;2022-08-01T00:19:40;97800.09999999999;;;23.45;65.502
17950;BME280;9100;48.700;9.316;2022-08-01T00:20:40;97801.9;;;23.45;65.633
17950;BME280;9100;48.700;9.316;2022-08-01T00:21:40;97796.7;;;23.45;65.25
17950;BME280;9100;48.700;9.316;2022-08-01T00:22:40;97798.5;;;23.44;65.5
17950;BME280;9100;48.700;9.316;2022-08-01T00:23:41;97797;;;23.43;64.984
17950;BME280;9100;48.700;9.316;2022-08-01T00:24:13;97796.2;;;23.43;64.842
17950;BME280;9100;48.700;9.316;2022-08-01T00:24:40;97800.40000000001;;;23.44;64.756
17950;BME280;9100;48.700;9.316;2022-08-01T00:25:40;97801.4;;;23.43;65.05
17950;BME280;9100;48.700;9.316;2022-08-01T00:26:40;97798.8;;;23.43;65.302
17950;BME280;9100;48.700;9.316;2022-08-01T00:27:40;97799;;;23.41;65.682
17950;BME280;9100;48.700;9.316;2022-08-01T00:28:41;97804.5;;;23.4;66.37
17950;BME280;9100;48.700;9.316;2022-08-01T00:29:13;97800.3;;;23.39;66.489
17950;BME280;9100;48.700;9.316;2022-08-01T00:29:40;97799.3;;;23.4;66.677
17950;BME280;9100;48.700;9.316;2022-08-01T00:30:40;97799.5;;;23.38;67.09
17950;BME280;9100;48.700;9.316;2022-08-01T00:31:40;97801.09999999999;;;23.39;66.884
17950;BME280;9100;48.700;9.316;2022-08-01T00:32:41;97800.3;;;23.39;66.905
17950;BME280;9100;48.700;9.316;2022-08-01T00:33:40;97803.9;;;23.38;66.739
17950;BME280;9100;48.700;9.316;2022-08-01T00:34:13;97801.59999999999;;;23.36;66.682
17950;BME280;9100;48.700;9.316;2022-08-01T00:34:41;97807.6;;;23.37;66.595
17950;BME280;9100;48.700;9.316;2022-08-01T00:35:40;97804.2;;;23.36;66.605
17950;BME280;9100;48.700;9.316;2022-08-01T00:36:40;97799;;;23.31;66.806
17950;BME280;9100;48.700;9.316;2022-08-01T00:37:41;97800.8;;;23.36;66.769
17950;BME280;9100;48.700;9.316;2022-08-01T00:38:40;97806.3;;;23.34;66.646
17950;BME280;9100;48.700;9.316;2022-08-01T00:39:13;97803.9;;;23.33;66.545
17950;BME280;9100;48.700;9.316;2022-08-01T00:39:41;97807.3;;;23.33;66.667
17950;BME280;9100;48.700;9.316;2022-08-01T00:40:40;97801.3;;;23.33;66.522
17950;BME280;9100;48.700;9.316;2022-08-01T00:41:40;97801.3;;;23.33;66.6
17950;BME280;9100;48.700;9.316;2022-08-01T00:42:40;97805;;;23.32;66.652
17950;BME280;9100;48.700;9.316;2022-08-01T00:43:41;97803.4;;;23.31;67.221
17950;BME280;9100;48.700;9.316;2022-08-01T00:44:13;97799;;;23.31;67.036
17950;BME280;9100;48.700;9.316;2022-08-01T00:44:41;97799.8;;;23.32;66.981
17950;BME280;9100;48.700;9.316;2022-08-01T00:45:41;97805;;;23.32;67.003
17950;BME280;9100;48.700;9.316;2022-08-01T00:46:40;97805.8;;;23.32;67.224
17950;BME280;9100;48.700;9.316;2022-08-01T00:47:40;97803.4;;;23.31;66.99
17950;BME280;9100;48.700;9.316;2022-08-01T00:48:40;97807.8;;;23.3;67.582
17950;BME280;9100;48.700;9.316;2022-08-01T00:49:13;97809.7;;;23.3;67.438
17950;BME280;9100;48.700;9.316;2022-08-01T00:49:40;97807.1;;;23.3;67.307
17950;BME280;9100;48.700;9.316;2022-08-01T00:50:40;97808.90000000001;;;23.29;67.088
17950;BME280;9100;48.700;9.316;2022-08-01T00:51:40;97809.90000000001;;;23.28;67.306
17950;BME280;9100;48.700;9.316;2022-08-01T00:52:41;97805.7;;;23.27;67.436
17950;BME280;9100;48.700;9.316;2022-08-01T00:53:40;97806;;;23.26;67.946
17950;BME280;9100;48.700;9.316;2022-08-01T00:54:13;97813.8;;;23.26;68.133
17950;BME280;9100;48.700;9.316;2022-08-01T00:54:40;97813.8;;;23.26;68.144
17950;BME280;9100;48.700;9.316;2022-08-01T00:55:40;97817.2;;;23.26;68.583
17950;BME280;9100;48.700;9.316;2022-08-01T00:56:40;97811.2;;;23.26;68.494
17950;BME280;9100;48.700;9.316;2022-08-01T00:57:40;97813.8;;;23.26;68.439
17950;BME280;9100;48.700;9.316;2022-08-01T00:58:40;97813.3;;;23.24;68.567
17950;BME280;9100;48.700;9.316;2022-08-01T00:59:13;97823.7;;;23.24;68.229
17950;BME280;9100;48.700;9.316;2022-08-01T00:59:40;97810.7;;;23.24;68.042
17950;BME280;9100;48.700;9.316;2022-08-01T01:00:40;97811.7;;;23.23;68.981
17950;BME280;9100;48.700;9.316;2022-08-01T01:01:40;97813.59999999999;;;23.22;69.189
17950;BME280;9100;48.700;9.316;2022-08-01T01:02:40;97813.8;;;23.2;68.902
17950;BME280;9100;48.700;9.316;2022-08-01T01:03:40;97821.1;;;23.18;68.735
17950;BME280;9100;48.700;9.316;2022-08-01T01:04:13;97817.7;;;23.18;69.04
17950;BME280;9100;48.700;9.316;2022-08-01T01:04:40;97821.1;;;23.18;68.735
17950;BME280;9100;48.700;9.316;2022-08-01T01:05:43;97816.4;;;23.15;68.993
17950;BME280;9100;48.700;9.316;2022-08-01T01:06:42;97814.8;;;23.14;69.034
17950;BME280;9100;48.700;9.316;2022-08-01T01:07:43;97806.2;;;23.14;68.597
17950;BME280;9100;48.700;9.316;2022-08-01T01:08:42;97811.7;;;23.12;68.659
17950;BME280;9100;48.700;9.316;2022-08-01T01:09:17;97806.7;;;23.11;68.581
17950;BME280;9100;48.700;9.316;2022-08-01T01:09:42;97809.1;;;23.12;68.407
17950;BME280;9100;48.700;9.316;2022-08-01T01:10:42;97819;;;23.1;68.448
17950;BME280;9100;48.700;9.316;2022-08-01T01:11:43;97813.2;;;23.08;68.664
17950;BME280;9100;48.700;9.316;2022-08-01T01:12:42;97807.5;;;23.06;69
17950;BME280;9100;48.700;9.316;2022-08-01T01:13:41;97814.8;;;23.04;69.347
17950;BME280;9100;48.700;9.316;2022-08-01T01:14:13;97806.4;;;23.02;69.333
17950;BME280;9100;48.700;9.316;2022-08-01T01:14:41;97808.8;;;23.04;69.313
17950;BME280;9100;48.700;9.316;2022-08-01T01:15:41;97812.40000000001;;;23.03;69.291
17950;BME280;9100;48.700;9.316;2022-08-01T01:16:41;97817.4;;;22.99;69.81
17950;BME280;9100;48.700;9.316;2022-08-01T01:17:41;97809;;;22.97;70.059
17950;BME280;9100;48.700;9.316;2022-08-01T01:18:42;97817.9;;;22.96;70.626
17950;BME280;9100;48.700;9.316;2022-08-01T01:19:13;97814.70000000001;;;22.94;70.819
17950;BME280;9100;48.700;9.316;2022-08-01T01:19:41;97807.7;;;22.95;70.832
17950;BME280;9100;48.700;9.316;2022-08-01T01:20:41;97809.5;;;22.94;70.295
17950;BME280;9100;48.700;9.316;2022-08-01T01:21:47;97813.2;;;22.93;70.467
17950;BME280;9100;48.700;9.316;2022-08-01T01:22:46;97813.7;;;22.9;70.408
17950;BME280;9100;48.700;9.316;2022-08-01T01:23:44;97819.9;;;22.89;70.723
17950;BME280;9100;48.700;9.316;2022-08-01T01:24:16;97813.2;;;22.88;71.029
17950;BME280;9100;48.700;9.316;2022-08-01T01:24:43;97817.3;;;22.89;70.723
17950;BME280;9100;48.700;9.316;2022-08-01T01:25:44;97820.2;;;22.88;70.907
17950;BME280;9100;48.700;9.316;2022-08-01T01:26:43;97823;;;22.86;71.113
17950;BME280;9100;48.700;9.316;2022-08-01T01:27:42;97818.9;;;22.85;70.892
17950;BME280;9100;48.700;9.316;2022-08-01T01:28:48;97816.7;;;22.82;70.876
17950;BME280;9100;48.700;9.316;2022-08-01T01:29:13;97814.4;;;22.81;70.796
17950;BME280;9100;48.700;9.316;2022-08-01T01:29:41;97818.8;;;22.8;70.895
17950;BME280;9100;48.700;9.316;2022-08-01T01:30:41;97812;;;22.79;71.637
17950;BME280;9100;48.700;9.316;2022-08-01T01:31:43;97817.8;;;22.76;71.665
17950;BME280;9100;48.700;9.316;2022-08-01T01:32:41;97822.2;;;22.76;72.036
17950;BME280;9100;48.700;9.316;2022-08-01T01:33:40;97826.09999999999;;;22.73;71.934
17950;BME280;9100;48.700;9.316;2022-08-01T01:34:13;97820.3;;;22.71;71.974
17950;BME280;9100;48.700;9.316;2022-08-01T01:34:43;97818.5;;;22.71;71.876
17950;BME280;9100;48.700;9.316;2022-08-01T01:35:42;97821.40000000001;;;22.7;72.32
17950;BME280;9100;48.700;9.316;2022-08-01T01:36:40;97817.2;;;22.69;72.736
17950;BME280;9100;48.700;9.316;2022-08-01T01:37:40;97822.40000000001;;;22.69;72.834
17950;BME280;9100;48.700;9.316;2022-08-01T01:38:41;97820.3;;;22.66;72.839
17950;BME280;9100;48.700;9.316;2022-08-01T01:39:13;97822.90000000001;;;22.66;73.123
17950;BME280;9100;48.700;9.316;2022-08-01T01:39:41;97823.7;;;22.66;72.818
17950;BME280;9100;48.700;9.316;2022-08-01T01:40:40;97820.3;;;22.66;72.653
17950;BME280;9100;48.700;9.316;2022-08-01T01:41:41;97819.8;;;22.64;72.661
17950;BME280;9100;48.700;9.316;2022-08-01T01:42:41;97823.40000000001;;;22.63;72.76
17950;BME280;9100;48.700;9.316;2022-08-01T01:43:40;97819.2;;;22.62;72.997
17950;BME280;9100;48.700;9.316;2022-08-01T01:44:13;97823.7;;;22.61;73.063
17950;BME280;9100;48.700;9.316;2022-08-01T01:44:41;97818.2;;;22.63;72.967
17950;BME280;9100;48.700;9.316;2022-08-01T01:45:41;97823.40000000001;;;22.63;73.667
17950;BME280;9100;48.700;9.316;2022-08-01T01:46:41;97824.40000000001;;;22.62;73.554
17950;BME280;9100;48.700;9.316;2022-08-01T01:47:41;97821.8;;;22.62;73.587
17950;BME280;9100;48.700;9.316;2022-08-01T01:48:40;97824.7;;;22.6;73.738
17950;BME280;9100;48.700;9.316;2022-08-01T01:49:13;97823.90000000001;;;22.6;73.988
17950;BME280;9100;48.700;9.316;2022-08-01T01:49:41;97827;;;22.62;73.598
17950;BME280;9100;48.700;9.316;2022-08-01T01:50:41;97826.5;;;22.6;73.824
17950;BME280;9100;48.700;9.316;2022-08-01T01:51:41;97822.1;;;22.6;74.143
17950;BME280;9100;48.700;9.316;2022-08-01T01:52:41;97823.90000000001;;;22.6;74.206
17950;BME280;9100;48.700;9.316;2022-08-01T01:53:41;97821.8;;;22.57;74.104
17950;BME280;9100;48.700;9.316;2022-08-01T01:54:13;97823.40000000001;;;22.58;74.28
17950;BME280;9100;48.700;9.316;2022-08-01T01:54:42;97821.8;;;22.57;74.377
17950;BME280;9100;48.700;9.316;2022-08-01T01:55:41;97832.2;;;22.57;74.377
17950;BME280;9100;48.700;9.316;2022-08-01T01:56:40;97825.7;;;22.54;74.526
17950;BME280;9100;48.700;9.316;2022-08-01T01:57:41;97828.5;;;22.53;74.993
17950;BME280;9100;48.700;9.316;2022-08-01T01:58:41;97825.09999999999;;;22.52;75.146
17950;BME280;9100;48.700;9.316;2022-08-01T01:59:13;97830.6;;;22.51;75.066
17950;BME280;9100;48.700;9.316;2022-08-01T01:59:40;97819.4;;;22.5;75.086
17950;BME280;9100;48.700;9.316;2022-08-01T02:00:40;97829;;;22.5;74.966
17950;BME280;9100;48.700;9.316;2022-08-01T02:01:40;97829.5;;;22.47;74.918
17950;BME280;9100;48.700;9.316;2022-08-01T02:02:41;97826.4;;;22.45;75.352
17950;BME280;9100;48.700;9.316;2022-08-01T02:03:40;97823.29999999999;;;22.43;75.72
17950;BME280;9100;48.700;9.316;2022-08-01T02:04:13;97823.8;;;22.4;75.614
17950;BME280;9100;48.700;9.316;2022-08-01T02:04:41;97829.8;;;22.4;75.562
17950;BME280;9100;48.700;9.316;2022-08-01T02:05:40;97827.4;;;22.39;75.744
17950;BME280;9100;48.700;9.316;2022-08-01T02:06:40;97821.7;;;22.37;76.287
17950;BME280;9100;48.700;9.316;2022-08-01T02:07:40;97819.5;;;22.34;76.664
17950;BME280;9100;48.700;9.316;2022-08-01T02:08:41;97823.2;;;22.33;77.022
17950;BME280;9100;48.700;9.316;2022-08-01T02:09:14;97826;;;22.31;76.857
17950;BME280;9100;48.700;9.316;2022-08-01T02:09:41;97822.40000000001;;;22.32;76.936
17950;BME280;9100;48.700;9.316;2022-08-01T02:10:40;97821.6;;;22.32;77.239
17950;BME280;9100;48.700;9.316;2022-08-01T02:11:40;97816.6;;;22.3;77.675
17950;BME280;9100;48.700;9.316;2022-08-01T02:12:41;97822.1;;;22.29;78.075
17950;BME280;9100;48.700;9.316;2022-08-01T02:13:40;97824.2;;;22.27;78.159
17950;BME280;9100;48.700;9.316;2022-08-01T02:14:13;97826.8;;;22.27;78.433
17950;BME280;9100;48.700;9.316;2022-08-01T02:14:41;97819;;;22.27;78.782
17950;BME280;9100;48.700;9.316;2022-08-01T02:15:40;97826.3;;;22.24;78.418
17950;BME280;9100;48.700;9.316;2022-08-01T02:16:41;97765.20000000001;;;21.89;78.584
17950;BME280;9100;48.700;9.316;2022-08-01T02:17:41;97825.5;;;22.24;78.722
17950;BME280;9100;48.700;9.316;2022-08-01T02:18:40;97826.8;;;22.21;79.265
17950;BME280;9100;48.700;9.316;2022-08-01T02:19:13;97825.2;;;22.2;79.383
17950;BME280;9100;48.700;9.316;2022-08-01T02:19:41;97821.5;;;22.21;79.505
17950;BME280;9100;48.700;9.316;2022-08-01T02:20:40;97823.6;;;22.19;79.774
17950;BME280;9100;48.700;9.316;2022-08-01T02:21:43;97822.79999999999;;;22.19;79.686
17950;BME280;9100;48.700;9.316;2022-08-01T02:22:41;97833.5;;;22.17;79.717
17950;BME280;9100;48.700;9.316;2022-08-01T02:23:40;97835.5;;;22.15;79.964
17950;BME280;9100;48.700;9.316;2022-08-01T02:24:13;97830.6;;;22.14;79.961
17950;BME280;9100;48.700;9.316;2022-08-01T02:24:42;97827.70000000001;;;22.15;79.985
17950;BME280;9100;48.700;9.316;2022-08-01T02:25:42;97824.59999999999;;;22.13;80.43
17950;BME280;9100;48.700;9.316;2022-08-01T02:26:41;97823;;;22.12;80.328
17950;BME280;9100;48.700;9.316;2022-08-01T02:27:41;97828.2;;;22.12;80.514
17950;BME280;9100;48.700;9.316;2022-08-01T02:28:41;97825.9;;;22.11;80.763
17950;BME280;9100;48.700;9.316;2022-08-01T02:29:13;97827.70000000001;;;22.1;80.805
17950;BME280;9100;48.700;9.316;2022-08-01T02:29:41;97826.70000000001;;;22.11;80.863
17950;BME280;9100;48.700;9.316;2022-08-01T02:30:42;97825.09999999999;;;22.1;81.023
17950;BME280;9100;48.700;9.316;2022-08-01T02:31:41;97827.20000000001;;;22.08;81.053
17950;BME280;9100;48.700;9.316;2022-08-01T02:32:41;97827.20000000001;;;22.08;81.249
17950;BME280;9100;48.700;9.316;2022-08-01T02:33:42;97833.7;;;22.06;81.44
17950;BME280;9100;48.700;9.316;2022-08-01T02:34:13;97825.3;;;22.04;81.731
17950;BME280;9100;48.700;9.316;2022-08-01T02:34:41;97825.8;;;22.06;81.702
17950;BME280;9100;48.700;9.316;2022-08-01T02:35:41;97832.1;;;22.05;82.019
17950;BME280;9100;48.700;9.316;2022-08-01T02:36:40;97826.09999999999;;;22.04;82.115
17950;BME280;9100;48.700;9.316;2022-08-01T02:37:40;97834.90000000001;;;22.03;82.157
17950;BME280;9100;48.700;9.316;2022-08-01T02:38:41;97828.2;;;22.02;82.319
17950;BME280;9100;48.700;9.316;2022-08-01T02:39:14;97827.4;;;22.02;82.503
17950;BME280;9100;48.700;9.316;2022-08-01T02:39:41;97830.8;;;22.02;82.701
17950;BME280;9100;48.700;9.316;2022-08-01T02:40:41;97826.59999999999;;;22.01;82.678
17950;BME280;9100;48.700;9.316;2022-08-01T02:41:41;97830.2;;;22;83.123
17950;BME280;9100;48.700;9.316;2022-08-01T02:42:41;97836.5;;;21.99;82.695
17950;BME280;9100;48.700;9.316;2022-08-01T02:43:42;97824.7;;;21.97;83.279
17950;BME280;9100;48.700;9.316;2022-08-01T02:44:15;97823.90000000001;;;21.96;83.486
17950;BME280;9100;48.700;9.316;2022-08-01T02:44:41;97830.7;;;21.97;83.345
17950;BME280;9100;48.700;9.316;2022-08-01T02:45:42;97833.6;;;21.96;83.736
17950;BME280;9100;48.700;9.316;2022-08-01T02:46:43;97830.2;;;21.95;83.701
17950;BME280;9100;48.700;9.316;2022-08-01T02:47:41;97834.79999999999;;;21.93;83.905
17950;BME280;9100;48.700;9.316;2022-08-01T02:48:41;97830.1;;;21.9;84.065
17950;BME280;9100;48.700;9.316;2022-08-01T02:49:13;97827.5;;;21.9;84.251
17950;BME280;9100;48.700;9.316;2022-08-01T02:49:41;97827.5;;;21.9;84.349
17950;BME280;9100;48.700;9.316;2022-08-01T02:50:41;97831.1;;;21.89;84.323
17950;BME280;9100;48.700;9.316;2022-08-01T02:51:40;97834;;;21.88;84.605
17950;BME280;9100;48.700;9.316;2022-08-01T02:52:40;97829;;;21.86;84.612
17950;BME280;9100;48.700;9.316;2022-08-01T02:53:41;97826.70000000001;;;21.85;84.696
17950;BME280;9100;48.700;9.316;2022-08-01T02:54:13;97826.70000000001;;;21.85;84.631
17950;BME280;9100;48.700;9.316;2022-08-01T02:54:41;97832.6;;;21.85;84.6
17950;BME280;9100;48.700;9.316;2022-08-01T02:55:41;97826.70000000001;;;21.85;84.391
17950;BME280;9100;48.700;9.316;2022-08-01T02:56:40;97836.3;;;21.84;84.718
17950;BME280;9100;48.700;9.316;2022-08-01T02:57:40;97831.3;;;21.83;84.899
17950;BME280;9100;48.700;9.316;2022-08-01T02:58:40;97839.09999999999;;;21.83;84.867
17950;BME280;9100;48.700;9.316;2022-08-01T02:59:13;97838.09999999999;;;21.84;85.133
17950;BME280;9100;48.700;9.316;2022-08-01T02:59:41;97841.5;;;21.84;85.209
17950;BME280;9100;48.700;9.316;2022-08-01T03:00:41;97838.09999999999;;;21.84;85.481
17950;BME280;9100;48.700;9.316;2022-08-01T03:01:41;97838.3;;;21.82;85.445
17950;BME280;9100;48.700;9.316;2022-08-01T03:02:41;97833.1;;;21.82;85.423
17950;BME280;9100;48.700;9.316;2022-08-01T03:03:40;97829.7;;;21.76;85.587
17950;BME280;9100;48.700;9.316;2022-08-01T03:04:13;97836;;;21.81;85.638
17950;BME280;9100;48.700;9.316;2022-08-01T03:04:41;97833.1;;;21.82;85.674
17950;BME280;9100;48.700;9.316;2022-08-01T03:05:41;97836.8;;;21.81;86.032
17950;BME280;9100;48.700;9.316;2022-08-01T03:06:40;97834.90000000001;;;21.82;86.241
17950;BME280;9100;48.700;9.316;2022-08-01T03:07:41;97837.8;;;21.8;86.434
17950;BME280;9100;48.700;9.316;2022-08-01T03:08:40;97833.6;;;21.79;86.574
17950;BME280;9100;48.700;9.316;2022-08-01T03:09:13;97841.4;;;21.79;86.53
17950;BME280;9100;48.700;9.316;2022-08-01T03:09:42;97833.6;;;21.79;86.498
17950;BME280;9100;48.700;9.316;2022-08-01T03:10:41;97839.59999999999;;;21.8;86.467
17950;BME280;9100;48.700;9.316;2022-08-01T03:11:41;97833.6;;;21.79;86.825
17950;BME280;9100;48.700;9.316;2022-08-01T03:12:41;97836.5;;;21.77;87.281
17950;BME280;9100;48.700;9.316;2022-08-01T03:13:41;97834.1;;;21.76;87.374
17950;BME280;9100;48.700;9.316;2022-08-01T03:14:13;97834.90000000001;;;21.76;87.299
17950;BME280;9100;48.700;9.316;2022-08-01T03:14:41;97835.7;;;21.77;87.301
17950;BME280;9100;48.700;9.316;2022-08-01T03:15:41;97834.40000000001;;;21.74;87.383
17950;BME280;9100;48.700;9.316;2022-08-01T03:16:41;97840.4;;;21.75;87.57
17950;BME280;9100;48.700;9.316;2022-08-01T03:17:41;97832.8;;;21.73;87.588
17950;BME280;9100;48.700;9.316;2022-08-01T03:18:40;97833;;;21.72;87.78
17950;BME280;9100;48.700;9.316;2022-08-01T03:19:13;97834.90000000001;;;21.71;87.649
17950;BME280;9100;48.700;9.316;2022-08-01T03:19:41;97835.6;;;21.72;87.759
17950;BME280;9100;48.700;9.316;2022-08-01T03:20:41;97834.1;;;21.71;87.879
17950;BME280;9100;48.700;9.316;2022-08-01T03:21:41;97835.1;;;21.7;87.962
17950;BME280;9100;48.700;9.316;2022-08-01T03:22:41;97833.5;;;21.69;88.234
17950;BME280;9100;48.700;9.316;2022-08-01T03:23:41;97837.2;;;21.68;88.373
17950;BME280;9100;48.700;9.316;2022-08-01T03:24:13;97839;;;21.67;88.481
17950;BME280;9100;48.700;9.316;2022-08-01T03:24:41;97838.2;;;21.67;88.569
17950;BME280;9100;48.700;9.316;2022-08-01T03:25:41;97842.4;;;21.68;88.547
17950;BME280;9100;48.700;9.316;2022-08-01T03:26:41;97841.6;;;21.67;88.34
17950;BME280;9100;48.700;9.316;2022-08-01T03:27:41;97837.7;;;21.65;88.771
17950;BME280;9100;48.700;9.316;2022-08-01T03:28:41;97844.9;;;21.63;88.984
17950;BME280;9100;48.700;9.316;2022-08-01T03:29:14;97843.4;;;21.62;88.928
17950;BME280;9100;48.700;9.316;2022-08-01T03:29:41;97843.4;;;21.62;88.961
17950;BME280;9100;48.700;9.316;2022-08-01T03:30:41;97844.1;;;21.62;89.006
17950;BME280;9100;48.700;9.316;2022-08-01T03:31:41;97841;;;21.6;89.559
17950;BME280;9100;48.700;9.316;2022-08-01T03:32:41;97837.90000000001;;;21.58;89.783
17950;BME280;9100;48.700;9.316;2022-08-01T03:33:41;97840.20000000001;;;21.55;89.798
17950;BME280;9100;48.700;9.316;2022-08-01T03:34:13;97841.2;;;21.54;89.861
17950;BME280;9100;48.700;9.316;2022-08-01T03:34:41;97838.59999999999;;;21.54;89.894
17950;BME280;9100;48.700;9.316;2022-08-01T03:35:42;97844.8;;;21.53;90.437
17950;BME280;9100;48.700;9.316;2022-08-01T03:36:43;97842.2;;;21.53;90.502
17950;BME280;9100;48.700;9.316;2022-08-01T03:37:42;97843.2;;;21.52;90.86
17950;BME280;9100;48.700;9.316;2022-08-01T03:38:41;97847.90000000001;;;21.5;90.911
17950;BME280;9100;48.700;9.316;2022-08-01T03:39:13;97846.1;;;21.5;90.922
17950;BME280;9100;48.700;9.316;2022-08-01T03:39:43;97848.7;;;21.5;91.009
17950;BME280;9100;48.700;9.316;2022-08-01T03:40:42;97840.09999999999;;;21.5;91.184
17950;BME280;9100;48.700;9.316;2022-08-01T03:41:41;97843.7;;;21.49;91.366
17950;BME280;9100;48.700;9.316;2022-08-01T03:42:42;97845.8;;;21.47;91.319
17950;BME280;9100;48.700;9.316;2022-08-01T03:43:42;97848.6;;;21.45;91.304
17950;BME280;9100;48.700;9.316;2022-08-01T03:44:14;97841.09999999999;;;21.44;91.551
17950;BME280;9100;48.700;9.316;2022-08-01T03:44:41;97842.6;;;21.45;91.651
17950;BME280;9100;48.700;9.316;2022-08-01T03:45:41;97844.4;;;21.44;91.422
17950;BME280;9100;48.700;9.316;2022-08-01T03:46:42;97843.7;;;21.44;91.507
17950;BME280;9100;48.700;9.316;2022-08-01T03:47:41;97848.90000000001;;;21.44;92.041
17950;BME280;9100;48.700;9.316;2022-08-01T03:48:42;97844.7;;;21.43;92.104
17950;BME280;9100;48.700;9.316;2022-08-01T03:49:14;97849.90000000001;;;21.43;92.225
17950;BME280;9100;48.700;9.316;2022-08-01T03:49:42;97848.90000000001;;;21.44;92.412
17950;BME280;9100;48.700;9.316;2022-08-01T03:50:41;97844.7;;;21.43;92.541
17950;BME280;9100;48.700;9.316;2022-08-01T03:51:41;97837.90000000001;;;21.42;92.789
17950;BME280;9100;48.700;9.316;2022-08-01T03:52:41;97844.1;;;21.41;92.939
17950;BME280;9100;48.700;9.316;2022-08-01T03:53:41;97843.6;;;21.39;93.197
17950;BME280;9100;48.700;9.316;2022-08-01T03:54:13;97842;;;21.38;93.282
17950;BME280;9100;48.700;9.316;2022-08-01T03:54:42;97856.6;;;21.39;93.187
17950;BME280;9100;48.700;9.316;2022-08-01T03:55:41;97847.2;;;21.38;92.999
17950;BME280;9100;48.700;9.316;2022-08-01T03:56:41;97850.8;;;21.37;93.498
17950;BME280;9100;48.700;9.316;2022-08-01T03:57:41;97847.7;;;21.35;93.876
17950;BME280;9100;48.700;9.316;2022-08-01T03:58:41;97850.5;;;21.33;94.471
17950;BME280;9100;48.700;9.316;2022-08-01T03:59:13;97844.8;;;21.31;94.532
17950;BME280;9100;48.700;9.316;2022-08-01T03:59:41;97837.5;;;21.33;94.58
17950;BME280;9100;48.700;9.316;2022-08-01T04:00:41;97852.59999999999;;;21.31;94.794
17950;BME280;9100;48.700;9.316;2022-08-01T04:01:41;97844.3;;;21.29;95.27
17950;BME280;9100;48.700;9.316;2022-08-01T04:02:41;97852.3;;;21.27;95.779
17950;BME280;9100;48.700;9.316;2022-08-01T04:03:41;97845;;;21.24;96.481
17950;BME280;9100;48.700;9.316;2022-08-01T04:04:13;97846.5;;;21.2;96.885
17950;BME280;9100;48.700;9.316;2022-08-01T04:04:41;97843.9;;;21.2;97.059
17950;BME280;9100;48.700;9.316;2022-08-01T04:05:41;97839.70000000001;;;21.14;97.297
17950;BME280;9100;48.700;9.316;2022-08-01T04:06:41;97854.2;;;21.15;98.063
17950;BME280;9100;48.700;9.316;2022-08-01T04:07:41;97842.5;;;21.13;98.525
17950;BME280;9100;48.700;9.316;2022-08-01T04:08:41;97842.7;;;21.11;97.911
17950;BME280;9100;48.700;9.316;2022-08-01T04:09:13;97839.59999999999;;;21.09;97.809
17950;BME280;9100;48.700;9.316;2022-08-01T04:09:41;97844.8;;;21.09;97.983
17950;BME280;9100;48.700;9.316;2022-08-01T04:10:41;97846.6;;;21.09;98.038
17950;BME280;9100;48.700;9.316;2022-08-01T04:11:41;97840.8;;;21.07;98.654
17950;BME280;9100;48.700;9.316;2022-08-01T04:12:41;97848.90000000001;;;21.05;98.639
17950;BME280;9100;48.700;9.316;2022-08-01T04:13:41;97843.4;;;21.02;99.272
17950;BME280;9100;48.700;9.316;2022-08-01T04:14:13;97846.8;;;21.02;99.373
17950;BME280;9100;48.700;9.316;2022-08-01T04:14:41;97843.1;;;21.03;99.527
17950;BME280;9100;48.700;9.316;2022-08-01T04:15:41;97841.8;;;21.01;99.695
17950;BME280;9100;48.700;9.316;2022-08-01T04:16:41;97847.79999999999;;;21.01;99.685
17950;BME280;9100;48.700;9.316;2022-08-01T04:17:41;97851.4;;;21;99.935
17950;BME280;9100;48.700;9.316;2022-08-01T04:18:41;97849.8;;;20.99;100
17950;BME280;9100;48.700;9.316;2022-08-01T04:19:13;97850.9;;;20.98;100
17950;BME280;9100;48.700;9.316;2022-08-01T04:19:41;97752.9;;;20.39;100
17950;BME280;9100;48.700;9.316;2022-08-01T04:20:41;97853.5;;;20.98;99.996
17950;BME280;9100;48.700;9.316;2022-08-01T04:21:41;97849.1;;;20.99;100
17950;BME280;9100;48.700;9.316;2022-08-01T04:22:41;97853.5;;;20.98;99.952